Sara Borchard — V2BY8 — position and weather

sailwx.info

Track history (hours):
 
Tides and Currents Weather Stations Pressure Air Temp Water Temp Dewpoint Dewpoint Depression Visibility Wind Speed Wind Dir Waves Ship Positions

Sara Borchard

Last reported at 2014-Oct-20 23:04 UTC. Time now 2014-Oct-21 08:58 UTC.
Position N 40°20' E 000°36'.

Length 134 m; draft 6.9 m.

Type: Ship (hazmat cat A). MMSI: 304962000.

Date/timePositionNaut miles runAvg speedWind from/ knotsBaromVisibWave heightAir tempDewpointWater temp
2014-Oct-20 23:04N 40°20' E 000°36'1717.5
2014-Oct-20 22:07N 40°09' E 000°21'1017.6
2014-Oct-20 21:32N 40°01' E 000°12'8 1.5
2014-Oct-20 16:29N 39°57' E 000°04'3213.8
2014-Oct-20 14:11N 39°44' E 000°41'3014.8
2014-Oct-20 12:08N 39°32' E 001°17'1118.3
2014-Oct-20 11:33N 39°28' E 001°30'1512.7
2014-Oct-20 10:24N 39°23' E 001°47'1515.6
2014-Oct-20 09:28N 39°17' E 002°05'1314.4
2014-Oct-20 08:33N 39°12' E 002°21'1715.3
2014-Oct-20 07:26N 39°06' E 002°41'1314.8
2014-Oct-20 06:33N 39°01' E 002°57'8516.2
2014-Oct-20 01:17N 38°40' E 004°43'1816.7
2014-Oct-20 00:11N 38°36' E 005°06'6116.5
2014-Oct-19 20:27N 38°20' E 006°22'1516.3
2014-Oct-19 19:32N 38°16' E 006°40'1616.1
2014-Oct-19 18:32N 38°13' E 007°00'1616.5
2014-Oct-19 17:34N 38°10' E 007°20'1916.7
2014-Oct-19 16:26N 38°05' E 007°43'1616.8
2014-Oct-19 15:28N 38°01' E 008°03'1617.0
2014-Oct-19 14:33N 37°57' E 008°22'1716.6
2014-Oct-19 13:33N 37°54' E 008°43'1716.7
2014-Oct-19 12:33N 37°50' E 009°04'1717.3
2014-Oct-19 11:33N 37°46' E 009°25'1716.3
2014-Oct-19 10:32N 37°42' E 009°45'13016.3
2014-Oct-19 02:33N 36°60' E 012°21'1716.7
2014-Oct-19 01:33N 36°55' E 012°40'1717.1
2014-Oct-19 00:33N 36°50' E 013°01'1716.9
2014-Oct-18 23:33N 36°44' E 013°21'1717.1
2014-Oct-18 22:33N 36°38' E 013°41'1717.0
2014-Oct-18 21:33N 36°32' E 014°01'1717.1
2014-Oct-18 20:33N 36°26' E 014°21'1716.8
2014-Oct-18 19:33N 36°22' E 014°41'1716.5
2014-Oct-18 18:33N 36°16' E 015°00'1816.8
2014-Oct-18 17:28N 36°11' E 015°22'21916.9
2014-Oct-18 04:33N 34°48' E 019°30'1717.1
2014-Oct-18 03:33N 34°41' E 019°49'1717.0
2014-Oct-18 02:33N 34°35' E 020°08'1717.1
2014-Oct-18 01:33N 34°29' E 020°28'1716.9
2014-Oct-18 00:33N 34°22' E 020°47'1717.0
2014-Oct-17 23:33N 34°15' E 021°05'1717.0
2014-Oct-17 22:33N 34°08' E 021°24'35916.9
2014-Oct-17 01:18N 31°49' E 027°60'  
2014-Oct-13 21:29N 34°09' E 033°13'1213.4
2014-Oct-13 20:33N 34°21' E 033°09'1414.4
2014-Oct-13 19:33N 34°35' E 033°04'5 4.5
2014-Oct-13 18:31N 34°39' E 033°01'0 0.0
2014-Oct-13 17:31N 34°39' E 033°01'0 0.0
2014-Oct-13 16:33N 34°39' E 033°01'0 0.0
2014-Oct-13 15:33N 34°39' E 033°01'0 0.0
2014-Oct-13 14:32N 34°39' E 033°01'0 0.0
2014-Oct-13 13:32N 34°39' E 033°01'0 0.0
2014-Oct-13 12:32N 34°39' E 033°01'6 5.7
2014-Oct-13 11:34N 34°34' E 033°03'1313.3
2014-Oct-13 10:34N 34°32' E 032°47'1514.3
2014-Oct-13 09:32N 34°35' E 032°30'39616.4
2014-Oct-12 09:25N 35°41' E 024°32'45416.3
2014-Oct-11 05:28N 38°10' E 015°35'1112.2
2014-Oct-11 04:33N 38°21' E 015°38'4217.3
2014-Oct-11 02:07N 38°49' E 014°58'1017.1
2014-Oct-11 01:33N 38°56' E 014°49'  
Track history (hours):
 
Tides and Currents Weather Stations Pressure Air Temp Water Temp Dewpoint Dewpoint Depression Visibility Wind Speed Wind Dir Waves Ship Positions

Sara Borchard

Last reported at 2014-Oct-20 23:04 UTC. Time now 2014-Oct-21 08:58 UTC.
Position N 40°20' E 000°36'.

Length 134 m; draft 6.9 m.

Type: Ship (hazmat cat A). MMSI: 304962000.

Date/timePositionNaut miles runAvg speedWind from/ knotsBaromVisibWave heightAir tempDewpointWater temp
2014-Oct-20 23:04N 40°20' E 000°36'1717.5
2014-Oct-20 22:07N 40°09' E 000°21'1017.6
2014-Oct-20 21:32N 40°01' E 000°12'8 1.5
2014-Oct-20 16:29N 39°57' E 000°04'3213.8
2014-Oct-20 14:11N 39°44' E 000°41'3014.8
2014-Oct-20 12:08N 39°32' E 001°17'1118.3
2014-Oct-20 11:33N 39°28' E 001°30'1512.7
2014-Oct-20 10:24N 39°23' E 001°47'1515.6
2014-Oct-20 09:28N 39°17' E 002°05'1314.4
2014-Oct-20 08:33N 39°12' E 002°21'1715.3
2014-Oct-20 07:26N 39°06' E 002°41'1314.8
2014-Oct-20 06:33N 39°01' E 002°57'8516.2
2014-Oct-20 01:17N 38°40' E 004°43'1816.7
2014-Oct-20 00:11N 38°36' E 005°06'6116.5
2014-Oct-19 20:27N 38°20' E 006°22'1516.3
2014-Oct-19 19:32N 38°16' E 006°40'1616.1
2014-Oct-19 18:32N 38°13' E 007°00'1616.5
2014-Oct-19 17:34N 38°10' E 007°20'1916.7
2014-Oct-19 16:26N 38°05' E 007°43'1616.8
2014-Oct-19 15:28N 38°01' E 008°03'1617.0
2014-Oct-19 14:33N 37°57' E 008°22'1716.6
2014-Oct-19 13:33N 37°54' E 008°43'1716.7
2014-Oct-19 12:33N 37°50' E 009°04'1717.3
2014-Oct-19 11:33N 37°46' E 009°25'1716.3
2014-Oct-19 10:32N 37°42' E 009°45'13016.3
2014-Oct-19 02:33N 36°60' E 012°21'1716.7
2014-Oct-19 01:33N 36°55' E 012°40'1717.1
2014-Oct-19 00:33N 36°50' E 013°01'1716.9
2014-Oct-18 23:33N 36°44' E 013°21'1717.1
2014-Oct-18 22:33N 36°38' E 013°41'1717.0
2014-Oct-18 21:33N 36°32' E 014°01'1717.1
2014-Oct-18 20:33N 36°26' E 014°21'1716.8
2014-Oct-18 19:33N 36°22' E 014°41'1716.5
2014-Oct-18 18:33N 36°16' E 015°00'1816.8
2014-Oct-18 17:28N 36°11' E 015°22'21916.9
2014-Oct-18 04:33N 34°48' E 019°30'1717.1
2014-Oct-18 03:33N 34°41' E 019°49'1717.0
2014-Oct-18 02:33N 34°35' E 020°08'1717.1
2014-Oct-18 01:33N 34°29' E 020°28'1716.9
2014-Oct-18 00:33N 34°22' E 020°47'1717.0
2014-Oct-17 23:33N 34°15' E 021°05'1717.0
2014-Oct-17 22:33N 34°08' E 021°24'35916.9
2014-Oct-17 01:18N 31°49' E 027°60'  
2014-Oct-13 21:29N 34°09' E 033°13'1213.4
2014-Oct-13 20:33N 34°21' E 033°09'1414.4
2014-Oct-13 19:33N 34°35' E 033°04'5 4.5
2014-Oct-13 18:31N 34°39' E 033°01'0 0.0
2014-Oct-13 17:31N 34°39' E 033°01'0 0.0
2014-Oct-13 16:33N 34°39' E 033°01'0 0.0
2014-Oct-13 15:33N 34°39' E 033°01'0 0.0
2014-Oct-13 14:32N 34°39' E 033°01'0 0.0
2014-Oct-13 13:32N 34°39' E 033°01'0 0.0
2014-Oct-13 12:32N 34°39' E 033°01'6 5.7
2014-Oct-13 11:34N 34°34' E 033°03'1313.3
2014-Oct-13 10:34N 34°32' E 032°47'1514.3
2014-Oct-13 09:32N 34°35' E 032°30'39616.4
2014-Oct-12 09:25N 35°41' E 024°32'45416.3
2014-Oct-11 05:28N 38°10' E 015°35'1112.2
2014-Oct-11 04:33N 38°21' E 015°38'4217.3
2014-Oct-11 02:07N 38°49' E 014°58'1017.1
2014-Oct-11 01:33N 38°56' E 014°49'  

Dump ship's entire track history